createdAt,value
2023-11-01T00:02:16.694Z,98526.81
2023-11-01T00:04:44.001Z,98517.47
2023-11-01T00:07:11.113Z,98508.84
2023-11-01T00:09:38.851Z,98503.06
2023-11-01T00:12:06.366Z,98488.56
2023-11-01T00:14:33.415Z,98495.09
2023-11-01T00:17:00.473Z,98493.00
2023-11-01T00:19:27.470Z,98494.63
2023-11-01T00:21:54.635Z,98502.44
2023-11-01T00:24:22.800Z,98484.94
2023-11-01T00:26:49.810Z,98480.59
2023-11-01T00:29:16.990Z,98478.72
2023-11-01T00:31:44.687Z,98480.59
2023-11-01T00:34:11.837Z,98475.00
2023-11-01T00:36:38.858Z,98458.50
2023-11-01T00:39:06.127Z,98465.69
2023-11-01T00:41:33.327Z,98465.75
2023-11-01T00:44:00.554Z,98466.19
2023-11-01T00:46:28.828Z,98461.38
2023-11-01T00:48:56.098Z,98466.31
2023-11-01T00:51:23.164Z,98464.16
2023-11-01T00:53:50.205Z,98457.25
2023-11-01T00:56:18.079Z,98454.06
2023-11-01T00:58:45.191Z,98443.66
2023-11-01T01:01:12.542Z,98452.53
2023-11-01T01:03:39.653Z,98449.84
2023-11-01T01:06:07.000Z,98444.69
2023-11-01T01:08:34.200Z,98427.44
2023-11-01T01:11:01.226Z,98433.63
2023-11-01T01:13:28.983Z,98432.31
2023-11-01T01:15:56.177Z,98427.75
2023-11-01T01:18:23.399Z,98423.53
2023-11-01T01:20:50.597Z,98434.88
2023-11-01T01:23:17.760Z,98420.56
2023-11-01T01:25:44.989Z,98429.56
2023-11-01T01:28:12.179Z,98434.44
2023-11-01T01:30:39.406Z,98423.19
2023-11-01T01:33:06.621Z,98414.03
2023-11-01T01:35:33.898Z,98414.63
2023-11-01T01:38:01.008Z,98415.25
2023-11-01T01:40:28.253Z,98408.19
2023-11-01T01:42:55.550Z,98428.84
2023-11-01T01:45:22.863Z,98410.03
2023-11-01T01:47:50.194Z,98415.97
2023-11-01T01:50:17.831Z,98406.81
2023-11-01T01:52:44.962Z,98409.59
2023-11-01T01:55:12.486Z,98412.03
2023-11-01T01:57:39.860Z,98406.91
2023-11-01T02:00:08.791Z,98397.84
2023-11-01T02:02:42.537Z,98391.72
2023-11-01T02:05:10.833Z,98384.44
2023-11-01T02:07:38.382Z,98393.63
2023-11-01T02:10:07.000Z,98387.22
2023-11-01T02:12:34.652Z,98388.59
2023-11-01T02:15:02.818Z,98367.28
2023-11-01T02:17:35.248Z,98388.66
2023-11-01T02:20:04.158Z,98379.50
2023-11-01T02:22:33.091Z,98380.94
2023-11-01T02:25:00.308Z,98384.19
2023-11-01T02:27:30.039Z,98384.69
2023-11-01T02:29:57.148Z,98392.50
2023-11-01T02:32:29.601Z,98392.50
2023-11-01T02:34:56.891Z,98382.81
2023-11-01T02:37:24.486Z,98375.25
2023-11-01T02:39:51.535Z,98372.34
2023-11-01T02:42:19.228Z,98373.94
2023-11-01T02:44:46.458Z,98362.59
2023-11-01T02:47:13.848Z,98371.41
2023-11-01T02:49:40.962Z,98386.00
2023-11-01T02:52:07.942Z,98380.13
2023-11-01T02:54:35.003Z,98376.06
2023-11-01T02:57:02.477Z,98372.50
2023-11-01T02:59:30.056Z,98376.75
2023-11-01T03:01:57.497Z,98387.28
2023-11-01T03:04:24.714Z,98388.81
2023-11-01T03:06:51.701Z,98371.56
2023-11-01T03:09:20.069Z,98365.47
2023-11-01T03:11:47.129Z,98371.91
2023-11-01T03:14:14.272Z,98376.19
2023-11-01T03:16:42.555Z,98365.41
2023-11-01T03:19:09.926Z,98372.13
2023-11-01T03:21:36.932Z,98359.69
2023-11-01T03:24:04.403Z,98377.50
2023-11-01T03:26:31.492Z,98364.56
2023-11-01T03:29:02.028Z,98372.91
2023-11-01T03:31:29.148Z,98353.44
2023-11-01T03:33:56.493Z,98361.50
2023-11-01T03:36:23.600Z,98341.25
2023-11-01T03:38:50.729Z,98346.63
2023-11-01T03:41:18.633Z,98334.97
2023-11-01T03:43:45.985Z,98350.38
2023-11-01T03:46:13.209Z,98339.22
2023-11-01T03:49:06.329Z,98344.09
2023-11-01T03:51:33.374Z,98332.38
2023-11-01T03:54:01.212Z,98326.03
2023-11-01T03:56:28.676Z,98315.59
2023-11-01T03:58:56.356Z,98306.50
2023-11-01T04:01:23.563Z,98312.88
2023-11-01T04:03:50.898Z,98320.66
2023-11-01T04:06:18.026Z,98313.31
2023-11-01T04:08:45.081Z,98304.19
2023-11-01T04:11:13.753Z,98309.50
2023-11-01T04:13:40.827Z,98300.84
2023-11-01T04:16:08.302Z,98306.56
2023-11-01T04:18:36.090Z,98310.06
2023-11-01T04:21:04.357Z,98307.31
2023-11-01T04:23:31.430Z,98312.41
2023-11-01T04:26:01.614Z,98304.34
2023-11-01T04:28:28.713Z,98312.41
2023-11-01T04:30:56.151Z,98309.56
2023-11-01T04:33:23.305Z,98302.38
2023-11-01T04:35:50.560Z,98299.38
2023-11-01T04:38:19.903Z,98301.81
2023-11-01T04:40:47.138Z,98306.13
2023-11-01T04:43:14.228Z,98311.50
2023-11-01T04:45:41.660Z,98314.78
2023-11-01T04:48:12.964Z,98306.44
2023-11-01T04:50:40.600Z,98300.06
2023-11-01T04:53:08.303Z,98305.19
2023-11-01T04:55:35.623Z,98318.53
2023-11-01T04:58:13.104Z,98302.09
2023-11-01T05:01:07.594Z,98324.34
2023-11-01T05:03:39.045Z,98313.50
2023-11-01T05:06:07.061Z,98319.91
2023-11-01T05:08:47.540Z,98342.88
2023-11-01T05:11:14.680Z,98329.78
2023-11-01T05:13:41.992Z,98335.53
2023-11-01T05:16:09.260Z,98324.25
2023-11-01T05:18:36.377Z,98333.19
2023-11-01T05:21:06.382Z,98323.97
2023-11-01T05:23:33.988Z,98333.19
2023-11-01T05:26:01.162Z,98324.03
2023-11-01T05:28:30.255Z,98325.41
2023-11-01T05:30:57.349Z,98324.34
2023-11-01T05:33:24.535Z,98329.22
2023-11-01T05:35:51.781Z,98330.59
2023-11-01T05:38:19.040Z,98334.41
2023-11-01T05:40:46.081Z,98326.91
2023-11-01T05:43:13.203Z,98328.22
2023-11-01T05:45:40.293Z,98323.38
2023-11-01T05:48:09.959Z,98327.09
2023-11-01T05:50:38.274Z,98333.03
2023-11-01T05:53:10.695Z,98326.34
2023-11-01T05:55:54.255Z,98325.22
2023-11-01T05:58:28.053Z,98335.56
2023-11-01T06:00:55.589Z,98317.63
2023-11-01T06:03:26.458Z,98318.00
2023-11-01T06:05:54.294Z,98326.94
2023-11-01T06:08:21.708Z,98321.94
2023-11-01T06:10:49.433Z,98312.53
2023-11-01T06:13:16.912Z,98311.22
2023-11-01T06:15:50.203Z,98319.09
2023-11-01T06:18:17.967Z,98317.56
2023-11-01T06:20:45.870Z,98308.34
2023-11-01T06:23:21.083Z,98306.16
2023-11-01T06:25:55.277Z,98302.66
2023-11-01T06:28:23.080Z,98306.50
2023-11-01T06:30:50.955Z,98322.75
2023-11-01T06:33:18.167Z,98331.22
2023-11-01T06:35:45.539Z,98325.31
2023-11-01T06:38:12.748Z,98317.22
2023-11-01T06:40:39.895Z,98312.09
2023-11-01T06:43:08.640Z,98316.72
2023-11-01T06:45:36.959Z,98337.03
2023-11-01T06:48:04.757Z,98321.41
2023-11-01T06:50:32.076Z,98325.78
2023-11-01T06:52:59.277Z,98338.50
2023-11-01T06:55:26.552Z,98325.81
2023-11-01T06:57:54.790Z,98315.84
2023-11-01T07:00:21.961Z,98319.91
2023-11-01T07:02:49.214Z,98328.31
2023-11-01T07:05:16.306Z,98335.63
2023-11-01T07:07:43.421Z,98336.16
2023-11-01T07:10:11.929Z,98322.16
2023-11-01T07:12:39.587Z,98334.88
2023-11-01T07:15:11.500Z,98328.63
2023-11-01T07:17:38.778Z,98334.03
2023-11-01T07:20:07.047Z,98330.28
2023-11-01T07:22:34.482Z,98317.53
2023-11-01T07:25:01.755Z,98333.19
2023-11-01T07:27:31.058Z,98315.34
2023-11-01T07:29:58.195Z,98308.19
2023-11-01T07:32:25.465Z,98320.22
2023-11-01T07:34:52.849Z,98333.06
2023-11-01T07:37:20.236Z,98300.72
2023-11-01T07:39:47.306Z,98295.44
2023-11-01T07:42:14.397Z,98327.25
2023-11-01T07:44:41.639Z,98321.88
2023-11-01T07:47:08.636Z,98320.34
2023-11-01T07:49:36.220Z,98317.22
2023-11-01T07:52:03.989Z,98315.16
2023-11-01T07:54:33.095Z,98309.34
2023-11-01T07:57:03.363Z,98315.44
2023-11-01T07:59:30.795Z,98315.22
2023-11-01T08:02:00.590Z,98337.81
2023-11-01T08:04:29.929Z,98300.34
2023-11-01T08:06:58.005Z,98325.19
2023-11-01T08:09:25.187Z,98310.38
2023-11-01T08:11:52.380Z,98316.31
2023-11-01T08:14:21.007Z,98312.25
2023-11-01T08:16:49.711Z,98319.81
2023-11-01T08:19:17.245Z,98319.00
2023-11-01T08:21:44.434Z,98316.47
2023-11-01T08:24:12.711Z,98324.78
2023-11-01T08:26:39.979Z,98305.22
2023-11-01T08:29:07.329Z,98314.50
2023-11-01T08:31:34.464Z,98308.50
2023-11-01T08:34:01.674Z,98291.44
2023-11-01T08:36:29.227Z,98305.28
2023-11-01T08:38:56.269Z,98307.13
2023-11-01T08:41:24.106Z,98309.50
2023-11-01T08:43:51.476Z,98304.34
2023-11-01T08:46:18.942Z,98305.44
2023-11-01T08:48:46.074Z,98302.38
2023-11-01T08:51:14.034Z,98308.63
2023-11-01T08:53:41.369Z,98305.59
2023-11-01T08:56:10.269Z,98294.09
2023-11-01T08:58:37.543Z,98289.56
2023-11-01T09:01:04.936Z,98288.25
2023-11-01T09:03:32.260Z,98271.72
2023-11-01T09:05:59.618Z,98265.94
2023-11-01T09:08:26.754Z,98277.16
2023-11-01T09:10:54.782Z,98259.53
2023-11-01T09:13:24.054Z,98266.00
2023-11-01T09:15:51.689Z,98266.91
2023-11-01T09:18:19.310Z,98269.44
2023-11-01T09:20:46.962Z,98261.84
2023-11-01T09:23:14.150Z,98249.94
2023-11-01T09:25:41.468Z,98249.94
2023-11-01T09:28:08.736Z,98258.81
2023-11-01T09:30:36.965Z,98265.88
2023-11-01T09:33:04.466Z,98252.44
2023-11-01T09:35:32.706Z,98253.41
2023-11-01T09:37:59.931Z,98244.63
2023-11-01T09:40:27.484Z,98241.44
2023-11-01T09:42:54.761Z,98242.03
2023-11-01T09:45:22.847Z,98236.31
2023-11-01T09:47:51.548Z,98234.53
2023-11-01T09:50:18.995Z,98221.75
2023-11-01T09:52:46.335Z,98229.03
2023-11-01T09:55:16.166Z,98223.00
2023-11-01T09:57:45.293Z,98214.38
2023-11-01T10:00:13.568Z,98213.06
2023-11-01T10:02:41.592Z,98212.34
2023-11-01T10:05:08.931Z,98189.25
2023-11-01T10:07:36.297Z,98196.84
2023-11-01T10:10:05.258Z,98201.75
2023-11-01T10:12:32.985Z,98199.72
2023-11-01T10:15:06.086Z,98197.19
2023-11-01T10:17:33.180Z,98206.94
2023-11-01T10:20:03.555Z,98186.28
2023-11-01T10:22:33.996Z,98177.41
2023-11-01T10:25:01.201Z,98195.00
2023-11-01T10:27:30.740Z,98197.44
2023-11-01T10:30:02.045Z,98195.63
2023-11-01T10:32:32.437Z,98200.63
2023-11-01T10:35:15.038Z,98191.69
2023-11-01T10:37:42.040Z,98179.16
2023-11-01T10:40:17.833Z,98190.53
2023-11-01T10:42:45.576Z,98185.34
2023-11-01T10:45:12.675Z,98187.09
2023-11-01T10:47:39.797Z,98188.53
2023-11-01T10:50:07.875Z,98183.88
2023-11-01T10:52:35.396Z,98183.94
2023-11-01T10:55:03.990Z,98185.31
2023-11-01T10:57:31.874Z,98181.34
2023-11-01T11:00:06.635Z,98168.88
2023-11-01T11:02:39.381Z,98163.00
2023-11-01T11:05:09.166Z,98144.13
2023-11-01T11:07:45.766Z,98167.84
2023-11-01T11:10:28.940Z,98169.91
2023-11-01T11:13:11.668Z,98157.41
2023-11-01T11:15:48.554Z,98164.03
2023-11-01T11:18:22.277Z,98163.56
2023-11-01T11:20:51.065Z,98163.44
2023-11-01T11:23:19.175Z,98158.97
2023-11-01T11:25:50.928Z,98165.56
2023-11-01T11:28:23.845Z,98157.28
2023-11-01T11:31:17.225Z,98148.09
2023-11-01T11:33:47.702Z,98139.75
2023-11-01T11:36:17.133Z,98152.94
2023-11-01T11:38:51.590Z,98146.13
2023-11-01T11:41:19.851Z,98143.22
2023-11-01T11:44:14.828Z,98139.47
2023-11-01T11:46:48.146Z,98137.84
2023-11-01T11:49:27.436Z,98136.50
2023-11-01T11:52:01.188Z,98144.41
2023-11-01T11:54:32.025Z,98138.72
2023-11-01T11:57:09.376Z,98132.78
2023-11-01T11:59:37.595Z,98124.19
2023-11-01T12:02:13.667Z,98111.09
2023-11-01T12:04:44.266Z,98097.09
2023-11-01T12:07:22.612Z,98106.47
2023-11-01T12:09:54.061Z,98098.56
2023-11-01T12:12:22.706Z,98104.34
2023-11-01T12:15:03.047Z,98085.63
2023-11-01T12:17:36.144Z,98099.94
2023-11-01T12:20:05.132Z,98099.78
2023-11-01T12:22:45.486Z,98087.34
2023-11-01T12:25:13.225Z,98093.13
2023-11-01T12:27:41.811Z,98097.00
2023-11-01T12:30:09.978Z,98082.94
2023-11-01T12:32:40.025Z,98085.63
2023-11-01T12:35:07.716Z,98079.34
2023-11-01T12:37:36.940Z,98076.53
2023-11-01T12:40:14.710Z,98067.59
2023-11-01T12:43:10.087Z,98075.00
2023-11-01T12:45:37.453Z,98068.84
2023-11-01T12:48:06.483Z,98069.50
2023-11-01T12:50:35.688Z,98070.03
2023-11-01T12:53:03.001Z,98064.59
2023-11-01T12:55:30.387Z,98072.72
2023-11-01T12:58:01.028Z,98065.84
2023-11-01T13:00:32.682Z,98071.13
2023-11-01T13:03:03.313Z,98076.09
2023-11-01T13:05:31.554Z,98069.81
2023-11-01T13:07:59.498Z,98072.75
2023-11-01T13:10:27.120Z,98071.22
2023-11-01T13:12:57.204Z,98075.75
2023-11-01T13:15:26.432Z,98065.47
2023-11-01T13:17:54.064Z,98066.00
2023-11-01T13:20:21.578Z,98060.91
2023-11-01T13:22:51.677Z,98056.66
2023-11-01T13:25:20.737Z,98060.69
2023-11-01T13:27:47.980Z,98055.50
2023-11-01T13:30:15.365Z,98057.59
2023-11-01T13:32:42.857Z,98064.81
2023-11-01T13:35:13.126Z,98057.53
2023-11-01T13:37:40.578Z,98060.41
2023-11-01T13:40:09.245Z,98064.50
2023-11-01T13:42:36.391Z,98076.00
2023-11-01T13:45:03.709Z,98064.50
2023-11-01T13:47:32.923Z,98060.84
2023-11-01T13:50:00.522Z,98065.44
2023-11-01T13:52:28.675Z,98077.94
2023-11-01T13:54:55.839Z,98075.88
2023-11-01T13:57:23.894Z,98077.81
2023-11-01T13:59:51.055Z,98083.25
2023-11-01T14:02:18.345Z,98070.78
2023-11-01T14:04:45.537Z,98077.19
2023-11-01T14:07:12.723Z,98084.78
2023-11-01T14:09:41.039Z,98074.91
2023-11-01T14:12:08.713Z,98069.59
2023-11-01T14:14:36.064Z,98060.38
2023-11-01T14:17:03.335Z,98047.75
2023-11-01T14:19:30.484Z,98058.59
2023-11-01T14:22:04.278Z,98050.59
2023-11-01T14:24:31.548Z,98067.63
2023-11-01T14:26:59.030Z,98066.59
2023-11-01T14:29:27.217Z,98058.00
2023-11-01T14:31:54.795Z,98054.84
2023-11-01T14:34:22.393Z,98063.25
2023-11-01T14:36:49.909Z,98064.97
2023-11-01T14:39:17.090Z,98066.63
2023-11-01T14:41:44.303Z,98062.13
2023-11-01T14:44:11.688Z,98061.59
2023-11-01T14:46:39.258Z,98068.19
2023-11-01T14:49:08.777Z,98063.88
2023-11-01T14:51:36.084Z,98058.53
2023-11-01T14:54:05.124Z,98063.53
2023-11-01T14:56:32.374Z,98064.59
2023-11-01T14:59:01.801Z,98061.41
2023-11-01T15:01:35.123Z,98071.72
2023-11-01T15:04:03.117Z,98063.56
2023-11-01T15:06:31.444Z,98064.13
2023-11-01T15:08:58.900Z,98055.03
2023-11-01T15:11:26.163Z,98063.31
2023-11-01T15:13:53.484Z,98057.09
2023-11-01T15:16:20.661Z,98065.50
2023-11-01T15:18:47.992Z,98036.31
2023-11-01T15:21:15.376Z,98045.19
2023-11-01T15:23:42.902Z,98045.50
2023-11-01T15:26:10.119Z,98044.19
2023-11-01T15:28:39.056Z,98032.28
2023-11-01T15:31:06.349Z,98033.91
2023-11-01T15:33:36.072Z,98041.22
2023-11-01T15:36:03.408Z,98039.34
2023-11-01T15:38:30.590Z,98030.69
2023-11-01T15:40:58.822Z,98027.97
2023-11-01T15:43:26.040Z,98027.97
2023-11-01T15:45:53.186Z,98026.28
2023-11-01T15:48:23.088Z,98035.53
2023-11-01T15:50:50.428Z,98032.28
2023-11-01T15:53:17.683Z,98031.53
2023-11-01T15:55:47.846Z,98035.63
2023-11-01T15:58:15.806Z,98030.25
2023-11-01T16:00:43.917Z,98043.56
2023-11-01T16:03:11.429Z,98046.31
2023-11-01T16:05:42.498Z,98041.78
2023-11-01T16:08:09.870Z,98038.06
2023-11-01T16:10:39.712Z,98041.31
2023-11-01T16:13:08.377Z,98042.38
2023-11-01T16:15:35.450Z,98036.97
2023-11-01T16:18:03.000Z,98035.41
2023-11-01T16:20:30.541Z,98028.88
2023-11-01T16:22:58.233Z,98032.66
2023-11-01T16:25:28.610Z,98022.38
2023-11-01T16:27:58.423Z,98021.81
2023-11-01T16:30:27.592Z,98019.06
2023-11-01T16:32:57.535Z,98023.41
2023-11-01T16:35:27.121Z,98022.97
2023-11-01T16:37:59.949Z,98032.16
2023-11-01T16:40:27.285Z,98027.59
2023-11-01T16:42:54.339Z,98028.69
2023-11-01T16:45:21.639Z,98021.94
2023-11-01T16:47:49.066Z,98020.84
2023-11-01T16:50:17.816Z,98018.13
2023-11-01T16:52:58.565Z,98024.66
2023-11-01T16:55:25.972Z,98017.38
2023-11-01T16:57:56.883Z,98027.69
2023-11-01T17:00:27.241Z,98018.75
2023-11-01T17:02:54.517Z,98023.38
2023-11-01T17:05:22.150Z,98024.44
2023-11-01T17:07:49.718Z,98027.97
2023-11-01T17:10:19.481Z,98029.84
2023-11-01T17:12:46.734Z,98039.34
2023-11-01T17:15:13.960Z,98033.66
2023-11-01T17:17:44.167Z,98037.75
2023-11-01T17:20:12.334Z,98028.03
2023-11-01T17:22:43.701Z,98015.03
2023-11-01T17:25:57.907Z,98022.88
2023-11-01T17:28:29.286Z,98013.69
2023-11-01T17:30:59.961Z,98021.56
2023-11-01T17:33:35.204Z,98019.44
2023-11-01T17:36:07.462Z,98021.84
2023-11-01T17:38:41.787Z,98006.72
2023-11-01T17:41:10.364Z,97995.44
2023-11-01T17:43:59.589Z,98012.97
2023-11-01T17:46:29.709Z,98006.22
2023-11-01T17:48:59.355Z,98011.63
2023-11-01T17:51:40.536Z,98017.31
2023-11-01T17:54:15.939Z,98011.41
2023-11-01T17:56:48.935Z,98015.13
2023-11-01T17:59:23.732Z,98009.72
2023-11-01T18:01:52.730Z,98018.69
2023-11-01T18:04:22.970Z,98017.84
2023-11-01T18:06:50.587Z,98012.19
2023-11-01T18:09:19.142Z,98022.75
2023-11-01T18:11:47.356Z,98007.59
2023-11-01T18:14:15.179Z,98005.97
2023-11-01T18:16:43.117Z,98008.38
2023-11-01T18:19:10.467Z,98009.72
2023-11-01T18:22:04.714Z,98005.66
2023-11-01T18:24:42.427Z,98007.31
2023-11-01T18:27:12.206Z,98008.16
2023-11-01T18:29:39.348Z,98007.06
2023-11-01T18:32:08.355Z,98000.06
2023-11-01T18:35:14.472Z,98011.97
2023-11-01T18:37:41.890Z,98011.69
2023-11-01T18:40:14.021Z,98006.59
2023-11-01T18:42:57.257Z,98007.13
2023-11-01T18:45:24.951Z,98005.00
2023-11-01T18:47:57.908Z,98008.25
2023-11-01T18:50:25.356Z,98008.28
2023-11-01T18:52:52.565Z,97996.41
2023-11-01T18:55:32.172Z,98004.81
2023-11-01T18:57:59.811Z,97999.13
2023-11-01T19:00:28.724Z,98009.16
2023-11-01T19:03:06.284Z,98005.94
2023-11-01T19:05:35.167Z,98010.78
2023-11-01T19:08:02.798Z,98007.28
2023-11-01T19:10:35.053Z,98010.00
2023-11-01T19:13:06.760Z,98004.03
2023-11-01T19:16:21.229Z,97995.66
2023-11-01T19:18:49.043Z,98004.03
2023-11-01T19:21:17.920Z,97991.63
2023-11-01T19:23:47.370Z,97980.84
2023-11-01T19:26:15.577Z,97986.75
2023-11-01T19:28:44.210Z,98001.31
2023-11-01T19:31:20.698Z,97997.81
2023-11-01T19:33:53.445Z,98011.88
2023-11-01T19:36:21.770Z,98023.78
2023-11-01T19:38:48.983Z,98015.38
2023-11-01T19:41:17.697Z,98009.47
2023-11-01T19:43:44.914Z,98006.81
2023-11-01T19:46:12.620Z,98011.41
2023-11-01T19:48:41.638Z,98015.22
2023-11-01T19:51:09.620Z,98010.63
2023-11-01T19:53:37.033Z,98009.88
2023-11-01T19:56:04.529Z,98005.81
2023-11-01T19:58:32.332Z,98004.47
2023-11-01T20:01:00.988Z,98001.22
2023-11-01T20:03:30.028Z,97994.72
2023-11-01T20:05:57.384Z,98010.16
2023-11-01T20:08:28.475Z,97998.25
2023-11-01T20:10:55.780Z,97999.91
2023-11-01T20:13:23.181Z,98015.28
2023-11-01T20:15:50.357Z,97999.63
2023-11-01T20:18:26.700Z,98018.28
2023-11-01T20:20:54.129Z,98017.72
2023-11-01T20:23:21.201Z,98005.56
2023-11-01T20:25:48.417Z,98011.53
2023-11-01T20:28:20.776Z,98011.78
2023-11-01T20:30:49.104Z,98001.53
2023-11-01T20:33:17.143Z,98007.75
2023-11-01T20:35:47.234Z,98005.88
2023-11-01T20:38:14.246Z,98001.28
2023-11-01T20:40:41.497Z,97998.28
2023-11-01T20:43:08.536Z,98001.81
2023-11-01T20:45:38.863Z,98003.69
2023-11-01T20:48:08.593Z,97997.19
2023-11-01T20:50:36.040Z,98004.50
2023-11-01T20:53:03.117Z,97996.66
2023-11-01T20:55:30.943Z,98001.81
2023-11-01T20:57:58.001Z,97998.00
2023-11-01T21:00:25.840Z,97998.00
2023-11-01T21:02:53.032Z,97992.34
2023-11-01T21:05:21.013Z,97989.34
2023-11-01T21:07:48.119Z,97996.09
2023-11-01T21:10:15.801Z,97996.09
2023-11-01T21:12:45.144Z,97992.59
2023-11-01T21:15:13.338Z,97993.69
2023-11-01T21:17:41.746Z,97989.91
2023-11-01T21:20:10.954Z,97994.50
2023-11-01T21:22:41.798Z,97992.88
2023-11-01T21:25:09.432Z,97987.19
2023-11-01T21:27:36.545Z,97982.34
2023-11-01T21:30:04.603Z,97964.00
2023-11-01T21:32:33.702Z,97963.69
2023-11-01T21:35:01.593Z,97967.19
2023-11-01T21:37:32.545Z,97960.72
2023-11-01T21:39:59.879Z,97954.53
2023-11-01T21:42:26.982Z,97951.81
2023-11-01T21:44:54.543Z,97948.28
2023-11-01T21:47:30.663Z,97941.53
2023-11-01T21:49:59.348Z,97930.72
2023-11-01T21:52:26.635Z,97932.63
2023-11-01T21:54:53.835Z,97941.28
2023-11-01T21:57:31.734Z,97936.63
2023-11-01T22:00:06.439Z,97936.63
2023-11-01T22:02:49.424Z,97946.66
2023-11-01T22:05:18.394Z,97944.75
2023-11-01T22:07:46.053Z,97933.94
2023-11-01T22:10:15.950Z,97927.72
2023-11-01T22:12:46.665Z,97929.09
2023-11-01T22:15:19.336Z,97936.66
2023-11-01T22:17:47.699Z,97945.31
2023-11-01T22:20:23.470Z,97938.84
2023-11-01T22:22:52.686Z,97939.97
2023-11-01T22:25:38.971Z,97949.97
2023-11-01T22:28:10.176Z,97950.78
2023-11-01T22:30:42.115Z,97948.09
2023-11-01T22:33:16.339Z,97946.75
2023-11-01T22:35:45.241Z,97940.28
2023-11-01T22:38:15.025Z,97939.78
2023-11-01T22:40:45.887Z,97930.06
2023-11-01T22:43:16.800Z,97935.72
2023-11-01T22:45:45.362Z,97938.97
2023-11-01T22:48:13.982Z,97941.41
2023-11-01T22:50:41.472Z,97936.81
2023-11-01T22:53:09.381Z,97946.03
2023-11-01T22:55:41.365Z,97950.88
2023-11-01T22:58:11.140Z,97947.09
2023-11-01T23:00:38.450Z,97948.72
2023-11-01T23:03:06.556Z,97943.03
2023-11-01T23:05:35.733Z,97941.66
2023-11-01T23:08:04.666Z,97944.13
2023-11-01T23:10:34.060Z,97942.47
2023-11-01T23:13:01.900Z,97943.03
2023-11-01T23:15:29.798Z,97948.75
2023-11-01T23:17:58.996Z,97945.22
2023-11-01T23:20:26.440Z,97955.75
2023-11-01T23:22:54.597Z,97951.44
2023-11-01T23:25:31.288Z,97955.22
2023-11-01T23:27:59.739Z,97935.50
2023-11-01T23:30:50.481Z,97937.13
2023-11-01T23:33:17.831Z,97941.72
2023-11-01T23:35:46.394Z,97952.50
2023-11-01T23:38:14.865Z,97949.53
2023-11-01T23:40:44.287Z,97950.06
2023-11-01T23:43:12.646Z,97953.84
2023-11-01T23:45:58.453Z,97952.75
2023-11-01T23:48:26.226Z,97946.25
2023-11-01T23:50:53.353Z,97942.47
2023-11-01T23:53:26.668Z,97942.19
2023-11-01T23:55:53.900Z,97942.75
2023-11-01T23:58:29.929Z,97935.97
